The Eastern Iowa Airport Cedar Rapids US
ICAO: KCID
IATA: CID
Category: Large
Scheduled Services: Yes

Elevation: 869 ft
TransAlt. 18000 ft.

Airport Communications:
APP/DEP:119.05
ATIS:124.15
CLNC DEL:125.45
CTAF:118.7
GND:121.6
FORT DODGE RDO:122.55
TWR:118.7
UNICOM:122.95

KCID Zoom In..

If you have problems with the map follow the link
https://www.worldairports.se/pages/airport.php?
ICAO=KCID

Runways:

(A) RW 09 length 8600 ft width 150 ft
ILS 109.30 / hdg 89

(B) RW 13 length 6200 ft width 150 ft
---- / hdg 134

(C) RW 27 length 8600 ft width 150 ft
ILS 111.30 / hdg 269

(D) RW 31 length 6200 ft width 150 ft
---- / hdg 314

Location; KCID
Day. 21 / Time. 19.52 Zulu
* Altimeter: 30.45
* Temperature: -10° c. -14°f.
* Wind from: 160° Speed 09 kn.
Dewpoint: -12° c.
Visibility: 7 Statute Miles.
Clouds: Clear (automated report).

KCID 211952Z 16009KT 7SM CLR M10/M12 A3045 RMK AO2 SLP333 T11001117


Wind From 160°
Speed 09 kn.

 
 
jpsmedia worldairports.se 2020   terms of use